LLIB/RPN METAR and TAF weather

Enter ICAO airport designator
Station Type Date Time Source
LLIB METAR 2019/08/22 04:50 UTC NOAA

LLIB 220450Z VRB01KT 9000 FEW025 25/19 Q1012


Station Type Date Time Source
LLIB Decoded METAR 2019/08/22 04:50 UTC NOAA

Station name not available
Aug 22, 2019 - 12:50 AM EDT / 2019.08.22 0450 UTC
Wind: Variable at 1 MPH (1 KT):0
Visibility: 5 mile(s):0
Sky conditions: mostly clear
Temperature: 77 F (25 C)
Dew Point: 66 F (19 C)
Relative Humidity: 69%
Pressure (altimeter): 29.88 in. Hg (1012 hPa)
ob: LLIB 220450Z VRB01KT 9000 FEW025 25/19 Q1012
cycle: 5

Station Type Date Time Source
LLIB TAF 2019/08/22 03:18 UTC NOAA

TAF TAF LLIB 220314Z 2203/2224 VRB04KT 9999 FEW015
BECMG 2205/2207 16006KT 9999 SCT025
BECMG 2209/2211 32012KT FEW035
BECMG 2218/2220 VRB04KT 6000 SCT015 TX36/2212Z TN20/2203Z

Example: see airport list